Terminal Aerodrome Forecast
Issued by NWS

Home | Current Version | Previous Version | Text Only | Print | Product List | Glossary On
Versions: 1 2 3 4 5 6 7 8 9 10 11 12 13 14 15 16 17 18
000
FTUS44 KLZK 041100
TAFLLQ
TAF
KLLQ 041137Z 0412/0512 26009KT 6SM -RA BR VCTS BKN050CB OVC080
      TEMPO 0412/0416 VRB15G25KT 4SM TSRA BR BKN035CB OVC050
     FM041800 22007KT P6SM VCSH BKN035 OVC100
     FM042000 22007KT P6SM VCTS SCT035CB BKN050 OVC100=

USA.gov is the U.S. government's official web portal to all federal, state and local government web resources and services.